Weather at Stony Island Airport

Public forecast

Using degrees Fahrenheit for public forecast. Weather courtesy of forecast.io.

Closest aviation weather report (METAR) to Stony Island Airport

Closest report is Watertown International Airport, 14.6 nm (26.9 km) ENE.

2024/07/24 21:56 (retrieved 45 minutes ago)

KART 242156Z AUTO VRB06KT 10SM FEW035 SCT044 24/21 A2998 RMK AO2 LTG DSNT SE RAE09 SLP147 P0000 T02440206

Closest aviation forecast (TAF) to Stony Island Airport

Closest forecast is Watertown International Airport, 14.6 nm (26.9 km) ENE.

2024/07/24 18:36 (retrieved 4 hours ago)

TAF KART 241733Z 2418/2518 21010G17KT P6SM SCT080 FM242100 21008KT P6SM VCSH BKN050 TEMPO 2421/2424 4SM TSRA OVC035CB FM250000 21007KT P6SM VCSH BKN080 FM250200 21007KT 6SM -SHRA BR BKN045 FM250500 23008KT P6SM BKN025